Time;durP1;ratioP1;P1;durP2;ratioP2;P2;SDS_P1;SDS_P2;PMS_P1;PMS_P2;Temp;Humidity;BMP_temperature;BMP_pressure;BME280_temperature;BME280_humidity;BME280_pressure;Samples;Min_cycle;Max_cycle;Signal;HPM_P1;HPM_P2
2023/03/08 00:01:08;;;;;;;0.43;0.43;;;;;;;7.44;59.67;100090.53;5027904;28;20455;-71
2023/03/08 00:03:34;;;;;;;0.30;0.30;;;;;;;7.73;58.22;100087.09;5017291;28;20121;-72
2023/03/08 00:06:04;;;;;;;0.40;0.40;;;;;;;7.38;59.72;100089.56;5009706;28;20104;-70
2023/03/08 00:08:29;;;;;;;0.40;0.40;;;;;;;7.53;59.25;100087.31;5018922;28;20486;-71
2023/03/08 00:10:55;;;;;;;0.30;0.30;;;;;;;7.06;60.53;100078.19;5027102;28;20025;-71
2023/03/08 00:13:20;;;;;;;0.30;0.30;;;;;;;7.49;59.53;100080.78;5016119;28;20040;-72
2023/03/08 00:15:45;;;;;;;0.30;0.30;;;;;;;6.96;61.23;100083.22;5027740;28;20034;-71
2023/03/08 00:18:11;;;;;;;0.30;0.30;;;;;;;7.13;60.77;100080.81;5013452;28;20060;-71
2023/03/08 00:20:36;;;;;;;0.30;0.30;;;;;;;7.65;58.35;100074.84;5013842;28;20100;-71
2023/03/08 00:23:02;;;;;;;0.35;0.35;;;;;;;7.20;59.85;100070.84;5013613;28;20037;-70
2023/03/08 00:25:27;;;;;;;0.50;0.50;;;;;;;7.55;58.71;100081.75;5013307;28;20498;-71
2023/03/08 00:27:52;;;;;;;0.35;0.35;;;;;;;7.27;59.49;100086.81;5030147;28;20577;-71
2023/03/08 00:30:18;;;;;;;0.40;0.40;;;;;;;7.22;59.91;100087.47;5032959;28;20034;-71
2023/03/08 00:32:43;;;;;;;0.40;0.40;;;;;;;7.27;59.62;100087.66;5033162;28;20029;-71
2023/03/08 00:35:08;;;;;;;0.40;0.40;;;;;;;6.76;60.93;100079.91;5033246;28;20547;-71
2023/03/08 00:37:34;;;;;;;0.38;0.38;;;;;;;7.39;58.94;100077.81;5031850;28;20270;-71
2023/03/08 00:39:59;;;;;;;0.40;0.40;;;;;;;7.56;58.04;100070.84;5032912;28;20026;-72
2023/03/08 00:42:25;;;;;;;0.40;0.40;;;;;;;7.45;58.16;100073.47;5032972;28;20030;-71
2023/03/08 00:44:50;;;;;;;0.30;0.30;;;;;;;7.50;57.81;100073.59;5032463;28;20029;-71
2023/03/08 00:47:16;;;;;;;0.40;0.40;;;;;;;7.53;58.05;100078.47;5033130;28;20240;-70
2023/03/08 00:49:43;;;;;;;0.30;0.30;;;;;;;7.34;58.48;100082.22;5032398;28;20079;-70
2023/03/08 00:52:09;;;;;;;0.30;0.30;;;;;;;7.14;58.98;100077.06;5032487;28;20030;-71
2023/03/08 00:54:34;;;;;;;0.30;0.30;;;;;;;7.29;58.66;100079.41;5032557;28;20445;-70
2023/03/08 00:56:59;;;;;;;0.40;0.40;;;;;;;7.38;58.15;100078.88;5032259;28;20025;-72
2023/03/08 00:59:25;;;;;;;0.38;0.38;;;;;;;7.16;58.34;100071.50;5033062;28;20021;-71
2023/03/08 01:01:50;;;;;;;0.35;0.35;;;;;;;7.21;58.40;100074.34;5032075;28;20048;-71
2023/03/08 01:04:16;;;;;;;0.40;0.40;;;;;;;7.13;58.25;100070.91;5032453;28;20421;-71
2023/03/08 01:06:44;;;;;;;0.35;0.35;;;;;;;7.26;57.77;100072.63;5032384;28;20033;-70
2023/03/08 01:09:10;;;;;;;0.30;0.30;;;;;;;7.20;57.91;100076.19;5032237;28;20029;-70
2023/03/08 01:11:36;;;;;;;0.45;0.45;;;;;;;6.86;58.50;100079.44;5032627;28;20108;-72
2023/03/08 01:14:04;;;;;;;0.40;0.40;;;;;;;6.96;58.83;100080.53;5032238;28;20120;-71
2023/03/08 01:16:32;;;;;;;0.35;0.35;;;;;;;7.04;58.20;100072.25;5032277;28;20108;-70
2023/03/08 01:18:59;;;;;;;0.43;0.43;;;;;;;7.20;57.90;100068.19;5031996;28;20052;-72
2023/03/08 01:21:26;;;;;;;0.40;0.40;;;;;;;6.93;58.31;100062.31;5032231;28;20061;-71
2023/03/08 01:23:51;;;;;;;0.30;0.30;;;;;;;7.04;58.04;100063.41;5032016;28;20025;-71
2023/03/08 01:26:20;;;;;;;0.30;0.30;;;;;;;7.05;57.83;100047.19;5032626;28;20384;-72
2023/03/08 01:28:46;;;;;;;0.60;0.60;;;;;;;6.79;58.49;100043.94;5032212;28;20033;-71
2023/03/08 01:31:13;;;;;;;0.30;0.30;;;;;;;7.04;57.51;100045.53;5032128;28;20168;-71
2023/03/08 01:33:40;;;;;;;0.30;0.30;;;;;;;6.76;59.00;100041.72;5031594;28;20111;-71
2023/03/08 01:36:07;;;;;;;0.40;0.40;;;;;;;7.00;58.77;100040.84;5031948;28;20481;-71
2023/03/08 01:38:33;;;;;;;0.40;0.40;;;;;;;6.90;58.05;100024.50;5032304;28;20445;-71
2023/03/08 01:41:00;;;;;;;0.40;0.40;;;;;;;7.05;58.24;100027.66;5031688;28;20511;-70
2023/03/08 01:43:32;;;;;;;0.40;0.40;;;;;;;7.02;57.97;100018.22;5031575;28;20041;-71
2023/03/08 01:46:14;;;;;;;0.30;0.30;;;;;;;7.02;58.22;100020.06;5031519;28;20033;-71
2023/03/08 01:48:44;;;;;;;0.30;0.30;;;;;;;6.96;58.23;100023.63;5025449;28;20053;-70
2023/03/08 01:51:14;;;;;;;0.30;0.30;;;;;;;6.94;58.09;100023.84;5015219;28;20052;-71
2023/03/08 01:53:41;;;;;;;0.30;0.30;;;;;;;6.88;58.33;100029.25;5024122;28;20096;-70
2023/03/08 01:56:10;;;;;;;0.50;0.50;;;;;;;6.89;58.27;100028.25;5023060;28;20041;-71
2023/03/08 01:58:38;;;;;;;0.50;0.50;;;;;;;6.93;57.85;100024.91;5031245;28;20113;-72
2023/03/08 02:01:03;;;;;;;0.40;0.40;;;;;;;6.91;58.07;100020.81;5031120;28;20065;-71
2023/03/08 02:03:29;;;;;;;0.40;0.40;;;;;;;6.80;58.08;100019.69;5031190;28;20029;-71
2023/03/08 02:05:54;;;;;;;0.35;0.35;;;;;;;7.06;58.20;100022.09;5031363;28;20082;-70
2023/03/08 02:08:19;;;;;;;0.35;0.35;;;;;;;7.07;57.79;100026.41;5031508;28;20120;-70
2023/03/08 02:10:45;;;;;;;0.40;0.40;;;;;;;7.03;57.73;100027.06;5031351;28;20030;-71
2023/03/08 02:13:11;;;;;;;0.40;0.40;;;;;;;7.00;57.63;100017.63;5031096;28;20061;-70
2023/03/08 02:15:37;;;;;;;0.40;0.40;;;;;;;7.17;57.40;100015.19;5030724;28;20039;-71
2023/03/08 02:18:02;;;;;;;0.50;0.50;;;;;;;7.18;57.72;100022.16;5031256;28;20491;-70
2023/03/08 02:20:27;;;;;;;0.40;0.40;;;;;;;7.05;57.71;100031.16;5013510;28;20033;-71
2023/03/08 02:22:53;;;;;;;0.40;0.40;;;;;;;7.15;57.66;100027.13;5031134;28;20041;-70
2023/03/08 02:25:24;;;;;;;0.30;0.30;;;;;;;7.12;57.76;100020.38;5031044;28;20397;-71
2023/03/08 02:27:51;;;;;;;0.45;0.45;;;;;;;7.05;58.05;100019.66;5030484;28;20086;-70
2023/03/08 02:30:24;;;;;;;0.40;0.40;;;;;;;7.21;57.41;100007.53;5030436;28;20489;-71
2023/03/08 02:32:49;;;;;;;0.20;0.20;;;;;;;6.48;58.63;99999.47;5030809;28;20033;-70
2023/03/08 02:35:14;;;;;;;0.40;0.40;;;;;;;7.09;57.82;99996.78;5013347;28;20126;-70
2023/03/08 02:37:40;;;;;;;0.38;0.38;;;;;;;7.09;57.38;99991.44;5030129;28;20041;-71
2023/03/08 02:40:06;;;;;;;0.40;0.40;;;;;;;7.16;57.62;99983.34;5030679;28;20416;-71
2023/03/08 02:42:32;;;;;;;0.40;0.40;;;;;;;7.04;57.50;99970.75;5030633;28;20450;-71
2023/03/08 02:44:57;;;;;;;0.40;0.40;;;;;;;7.03;57.52;99961.13;5030479;28;20061;-71
2023/03/08 02:47:22;;;;;;;0.30;0.30;;;;;;;6.96;58.07;99967.53;5031067;28;20108;-70
2023/03/08 02:49:48;;;;;;;0.30;0.30;;;;;;;7.01;57.63;99965.88;5030342;28;20183;-70
2023/03/08 02:52:13;;;;;;;0.30;0.30;;;;;;;7.04;57.64;99967.25;5030224;28;20187;-70
2023/03/08 02:54:39;;;;;;;0.37;0.37;;;;;;;6.80;58.65;99968.16;5030513;28;20080;-72
2023/03/08 02:57:04;;;;;;;0.40;0.40;;;;;;;6.71;58.67;99970.28;5030721;28;20512;-70
2023/03/08 02:59:30;;;;;;;0.33;0.33;;;;;;;6.85;59.00;99963.78;5028933;28;20036;-71
2023/03/08 03:01:56;;;;;;;0.40;0.40;;;;;;;6.84;58.70;99962.13;5010447;28;20096;-70
2023/03/08 03:04:21;;;;;;;0.30;0.30;;;;;;;7.03;57.65;99966.47;5018914;28;20033;-71
2023/03/08 03:06:47;;;;;;;0.38;0.38;;;;;;;7.09;57.42;99962.06;5030242;28;20540;-71
2023/03/08 03:09:12;;;;;;;0.45;0.45;;;;;;;7.01;57.35;99970.38;5030382;28;20124;-70
2023/03/08 03:11:39;;;;;;;0.40;0.40;;;;;;;7.11;56.99;99973.34;5030726;28;20140;-72
2023/03/08 03:14:04;;;;;;;0.40;0.40;;;;;;;7.03;57.02;99971.78;5029983;28;20056;-70
2023/03/08 03:16:30;;;;;;;0.47;0.47;;;;;;;6.98;57.38;99974.31;5030128;28;20505;-71
2023/03/08 03:18:55;;;;;;;0.40;0.40;;;;;;;6.74;57.84;99974.38;5028955;28;20041;-71
2023/03/08 03:21:22;;;;;;;0.32;0.32;;;;;;;6.82;57.72;99971.44;5030468;28;20488;-71
2023/03/08 03:23:47;;;;;;;0.38;0.38;;;;;;;6.70;58.01;99971.31;5030132;28;20032;-68
2023/03/08 03:26:15;;;;;;;0.40;0.40;;;;;;;6.66;58.66;99966.66;5026684;28;20026;-70
2023/03/08 03:28:41;;;;;;;0.40;0.40;;;;;;;6.86;57.68;99968.06;5010605;28;20034;-71
2023/03/08 03:31:12;;;;;;;0.40;0.40;;;;;;;6.77;58.52;99969.41;5009326;28;20060;-70
2023/03/08 03:33:38;;;;;;;0.40;0.40;;;;;;;6.74;58.10;99975.19;4992867;28;20121;-71
2023/03/08 03:36:04;;;;;;;0.30;0.30;;;;;;;6.70;57.96;99965.19;5010998;28;20219;-70
2023/03/08 03:38:30;;;;;;;0.47;0.47;;;;;;;6.73;57.27;99972.75;5011259;28;20034;-71
2023/03/08 03:41:01;;;;;;;0.50;0.50;;;;;;;6.81;57.86;99970.59;5010430;28;20030;-69
2023/03/08 03:43:26;;;;;;;0.30;0.30;;;;;;;6.76;56.68;99969.63;5010548;28;20044;-70
2023/03/08 03:45:56;;;;;;;0.47;0.47;;;;;;;6.46;57.64;99966.84;5010012;28;20030;-70
2023/03/08 03:48:21;;;;;;;0.30;0.30;;;;;;;6.55;58.08;99964.69;5010479;28;20190;-69
2023/03/08 03:50:54;;;;;;;0.40;0.40;;;;;;;6.66;57.91;99958.66;5013677;28;20538;-69
2023/03/08 03:53:19;;;;;;;0.40;0.40;;;;;;;6.51;57.94;99960.84;5015057;28;20601;-71
2023/03/08 03:55:45;;;;;;;0.43;0.43;;;;;;;6.31;57.78;99960.22;5012602;28;20041;-70
2023/03/08 03:58:10;;;;;;;0.40;0.40;;;;;;;6.52;58.11;99965.97;5013839;28;20138;-72
2023/03/08 04:00:35;;;;;;;0.30;0.30;;;;;;;6.57;57.47;99959.97;5022351;28;20092;-71
2023/03/08 04:03:00;;;;;;;0.40;0.40;;;;;;;6.51;57.57;99963.50;5034066;28;20164;-70
2023/03/08 04:05:26;;;;;;;0.30;0.30;;;;;;;6.54;58.11;99960.41;5034184;28;20112;-72
2023/03/08 04:07:51;;;;;;;0.43;0.43;;;;;;;6.50;58.18;99956.56;5015492;28;20033;-71
2023/03/08 04:10:17;;;;;;;0.40;0.40;;;;;;;6.52;58.07;99949.97;5033476;28;20149;-70
2023/03/08 04:12:42;;;;;;;0.40;0.40;;;;;;;6.54;57.71;99949.75;5033357;28;20128;-71
2023/03/08 04:15:08;;;;;;;0.40;0.40;;;;;;;6.53;57.80;99953.44;5032892;28;20405;-70
2023/03/08 04:17:33;;;;;;;0.30;0.30;;;;;;;6.56;57.83;99945.00;5033634;28;20032;-71
2023/03/08 04:19:58;;;;;;;0.33;0.33;;;;;;;6.56;58.18;99942.31;5033138;28;20397;-70
2023/03/08 04:22:24;;;;;;;0.40;0.40;;;;;;;6.58;58.07;99935.75;5033168;28;20154;-71
2023/03/08 04:24:49;;;;;;;0.50;0.50;;;;;;;6.75;57.62;99928.78;5033091;28;20112;-71
2023/03/08 04:27:14;;;;;;;0.50;0.50;;;;;;;6.75;57.66;99923.44;5020921;28;20463;-71
2023/03/08 04:29:40;;;;;;;0.40;0.40;;;;;;;6.62;57.95;99914.75;5013465;28;20118;-71
2023/03/08 04:32:05;;;;;;;0.40;0.40;;;;;;;6.61;58.13;99915.78;4995619;28;20089;-70
2023/03/08 04:34:30;;;;;;;0.40;0.40;;;;;;;6.51;58.32;99910.97;5013111;28;20080;-70
2023/03/08 04:36:56;;;;;;;0.40;0.40;;;;;;;6.61;57.95;99910.44;5013260;28;20469;-70
2023/03/08 04:39:21;;;;;;;0.40;0.40;;;;;;;6.50;57.61;99900.50;5013311;28;20396;-69
2023/03/08 04:41:46;;;;;;;0.50;0.50;;;;;;;6.59;57.91;99905.34;5013193;28;20104;-69
2023/03/08 04:44:12;;;;;;;0.43;0.43;;;;;;;6.59;58.37;99904.50;5013431;28;20053;-70
2023/03/08 04:46:37;;;;;;;0.40;0.40;;;;;;;6.51;58.59;99904.78;5012713;28;20395;-70
2023/03/08 04:49:02;;;;;;;0.40;0.40;;;;;;;6.53;58.35;99900.88;5012936;28;20052;-71
2023/03/08 04:51:28;;;;;;;0.50;0.50;;;;;;;6.70;57.94;99911.78;5012896;28;20129;-71
2023/03/08 04:53:53;;;;;;;0.32;0.32;;;;;;;6.66;58.08;99908.72;5012810;28;20030;-71
2023/03/08 04:56:19;;;;;;;0.50;0.50;;;;;;;6.63;58.06;99900.34;5016858;28;20103;-71
2023/03/08 04:58:45;;;;;;;0.40;0.40;;;;;;;6.35;58.88;99900.06;5032766;28;20051;-69
2023/03/08 05:01:21;;;;;;;0.40;0.40;;;;;;;6.82;58.20;99896.66;5031460;28;20100;-70
2023/03/08 05:03:48;;;;;;;0.40;0.40;;;;;;;6.19;59.46;99899.56;5032057;28;20056;-70
2023/03/08 05:06:14;;;;;;;0.40;0.40;;;;;;;6.47;59.11;99890.25;5032448;28;20033;-70
2023/03/08 05:08:40;;;;;;;0.50;0.50;;;;;;;6.55;58.74;99888.13;5032640;28;20037;-71
2023/03/08 05:11:05;;;;;;;0.50;0.50;;;;;;;6.38;59.90;99884.41;5031888;28;20057;-70
2023/03/08 05:13:33;;;;;;;0.40;0.40;;;;;;;6.21;59.52;99886.03;5032042;28;20040;-71
2023/03/08 05:15:59;;;;;;;0.40;0.40;;;;;;;6.44;59.42;99880.03;5023642;28;20030;-71
2023/03/08 05:18:25;;;;;;;0.40;0.40;;;;;;;6.66;58.49;99868.69;5026360;28;20048;-70
2023/03/08 05:20:59;;;;;;;0.50;0.50;;;;;;;6.78;58.67;99868.78;5031991;28;20032;-72
2023/03/08 05:23:25;;;;;;;0.50;0.50;;;;;;;6.47;59.06;99859.06;5032467;28;20036;-71
2023/03/08 05:25:55;;;;;;;0.50;0.50;;;;;;;6.71;59.13;99857.34;5031003;28;20067;-70
2023/03/08 05:28:22;;;;;;;0.30;0.30;;;;;;;6.75;58.41;99854.00;5012098;28;20048;-71
2023/03/08 05:30:48;;;;;;;0.40;0.40;;;;;;;6.79;58.81;99857.03;5012058;28;20098;-72
2023/03/08 05:33:15;;;;;;;0.47;0.47;;;;;;;6.85;58.19;99848.13;5012075;28;20501;-70
2023/03/08 05:35:41;;;;;;;0.40;0.40;;;;;;;6.84;58.52;99849.97;5012765;28;20029;-70
2023/03/08 05:38:06;;;;;;;0.40;0.40;;;;;;;6.84;58.09;99847.31;5014612;28;20045;-70
2023/03/08 05:40:31;;;;;;;0.50;0.50;;;;;;;6.93;57.77;99835.31;5023417;28;20405;-70
2023/03/08 05:42:57;;;;;;;0.47;0.47;;;;;;;6.87;58.41;99840.72;5031478;28;20090;-71
2023/03/08 05:45:22;;;;;;;0.40;0.40;;;;;;;6.90;57.85;99837.59;5031115;28;20025;-69
2023/03/08 05:47:47;;;;;;;0.40;0.40;;;;;;;6.91;58.36;99833.88;5031415;28;20069;-70
2023/03/08 05:50:13;;;;;;;0.55;0.55;;;;;;;6.38;59.03;99828.38;5031351;28;20116;-70
2023/03/08 05:52:41;;;;;;;0.40;0.40;;;;;;;6.83;59.00;99819.00;5030927;28;20060;-70
2023/03/08 05:55:07;;;;;;;0.40;0.40;;;;;;;7.01;57.75;99815.47;5012727;28;20125;-72
2023/03/08 05:57:32;;;;;;;0.30;0.30;;;;;;;7.06;57.88;99811.06;5031143;28;20505;-70
2023/03/08 05:59:57;;;;;;;0.40;0.40;;;;;;;6.74;58.59;99808.88;5028436;28;20105;-71
2023/03/08 06:02:23;;;;;;;0.30;0.30;;;;;;;6.69;59.18;99806.84;5030704;28;20041;-71
2023/03/08 06:04:48;;;;;;;0.40;0.40;;;;;;;6.62;58.79;99800.81;5031009;28;20171;-71
2023/03/08 06:07:14;;;;;;;0.40;0.40;;;;;;;6.51;60.00;99795.38;5019355;28;20045;-70
2023/03/08 06:09:39;;;;;;;0.50;0.50;;;;;;;6.64;59.41;99797.91;5030596;28;20041;-71
2023/03/08 06:12:05;;;;;;;0.45;0.45;;;;;;;6.79;58.81;99788.44;5030426;28;20072;-70
2023/03/08 06:14:30;;;;;;;0.70;0.70;;;;;;;6.33;60.74;99800.75;5031496;28;20469;-70
2023/03/08 06:16:55;;;;;;;0.95;0.52;;;;;;;6.52;60.15;99792.50;5030654;28;20033;-72
2023/03/08 06:19:21;;;;;;;0.90;0.60;;;;;;;6.65;60.08;99794.19;5030616;28;20029;-71
2023/03/08 06:21:46;;;;;;;0.47;0.47;;;;;;;6.53;60.57;99795.97;5030779;28;20045;-71
2023/03/08 06:24:11;;;;;;;0.68;0.65;;;;;;;6.52;59.53;99795.19;5026699;28;20033;-69
2023/03/08 06:26:37;;;;;;;0.75;0.60;;;;;;;7.14;58.68;99785.88;5021870;28;20453;-71
2023/03/08 06:29:02;;;;;;;2.05;1.30;;;;;;;6.64;59.90;99784.56;5020841;28;20044;-71
2023/03/08 06:31:28;;;;;;;1.40;0.95;;;;;;;6.62;59.87;99784.78;5020459;28;20037;-70
2023/03/08 06:33:53;;;;;;;1.40;0.88;;;;;;;6.63;60.08;99783.72;5030172;28;20068;-71
2023/03/08 06:36:20;;;;;;;1.50;0.90;;;;;;;6.27;60.96;99793.63;5028528;28;20062;-70
2023/03/08 06:38:46;;;;;;;0.60;0.60;;;;;;;6.94;59.40;99785.34;5011595;28;20045;-70
2023/03/08 06:41:14;;;;;;;0.93;0.67;;;;;;;6.91;59.15;99785.81;5026067;28;20493;-71
2023/03/08 06:43:40;;;;;;;0.88;0.82;;;;;;;6.93;60.25;99784.56;5023308;28;20037;-71
2023/03/08 06:46:15;;;;;;;1.75;0.80;;;;;;;7.09;60.29;99788.44;5008047;28;20048;-70
2023/03/08 06:48:41;;;;;;;1.55;0.70;;;;;;;6.97;59.71;99780.41;5027726;28;20084;-72
2023/03/08 06:51:07;;;;;;;0.88;0.60;;;;;;;6.91;59.47;99783.97;5024367;28;20065;-72
2023/03/08 06:53:39;;;;;;;0.55;0.55;;;;;;;7.01;59.84;99786.09;5022930;28;20025;-71
2023/03/08 06:56:07;;;;;;;1.48;0.80;;;;;;;6.90;59.10;99786.84;5024881;28;20042;-71
2023/03/08 06:58:33;;;;;;;1.27;0.70;;;;;;;6.95;59.82;99789.66;5022525;28;20057;-71
2023/03/08 07:00:59;;;;;;;1.42;0.70;;;;;;;6.96;59.99;99781.41;5017724;28;20046;-71
2023/03/08 07:03:25;;;;;;;1.10;0.63;;;;;;;6.46;61.93;99781.91;5011437;28;20052;-70
2023/03/08 07:05:51;;;;;;;1.65;0.82;;;;;;;6.73;60.91;99784.00;5018800;28;20061;-71
2023/03/08 07:08:16;;;;;;;0.60;0.60;;;;;;;6.79;60.77;99787.63;5031042;28;20108;-73
2023/03/08 07:10:42;;;;;;;0.82;0.70;;;;;;;6.36;61.06;99790.44;5027865;28;20129;-69
2023/03/08 07:13:07;;;;;;;0.50;0.50;;;;;;;6.79;60.47;99784.97;5030777;28;20048;-71
2023/03/08 07:15:32;;;;;;;0.50;0.50;;;;;;;6.60;61.75;99783.38;5018412;28;20029;-71
2023/03/08 07:17:58;;;;;;;0.60;0.60;;;;;;;6.95;60.42;99789.66;5022462;28;20041;-71
2023/03/08 07:20:26;;;;;;;1.67;0.90;;;;;;;6.70;60.48;99781.00;5030271;28;20017;-71
2023/03/08 07:22:52;;;;;;;0.63;0.63;;;;;;;7.19;60.59;99783.34;5030594;28;20183;-71
2023/03/08 07:25:19;;;;;;;0.95;0.65;;;;;;;6.92;59.91;99787.44;5032849;28;20064;-73
2023/03/08 07:27:45;;;;;;;0.73;0.68;;;;;;;7.16;59.45;99774.97;5032292;28;20080;-69
2023/03/08 07:30:13;;;;;;;0.40;0.40;;;;;;;7.29;59.48;99775.59;5016436;28;20061;-72
2023/03/08 07:32:41;;;;;;;0.60;0.50;;;;;;;7.25;59.02;99773.59;5035000;28;20051;-71
2023/03/08 07:35:08;;;;;;;0.80;0.70;;;;;;;7.33;59.18;99776.75;5016286;28;20071;-69
2023/03/08 07:37:34;;;;;;;0.55;0.55;;;;;;;7.52;58.99;99774.81;5034904;28;20044;-70
2023/03/08 07:39:59;;;;;;;1.95;0.70;;;;;;;7.23;59.67;99773.03;5016863;28;20029;-70
2023/03/08 07:42:26;;;;;;;0.75;0.60;;;;;;;7.32;59.41;99768.97;5034750;28;20501;-72
2023/03/08 07:44:51;;;;;;;0.45;0.45;;;;;;;7.12;60.25;99774.63;5034450;28;20033;-70
2023/03/08 07:47:17;;;;;;;0.52;0.50;;;;;;;7.24;60.14;99780.81;5034915;28;20476;-71
2023/03/08 07:49:42;;;;;;;1.85;0.77;;;;;;;7.23;59.92;99768.50;5034531;28;20046;-71
2023/03/08 07:52:07;;;;;;;1.10;0.90;;;;;;;7.28;59.88;99773.13;5034777;28;20044;-70
2023/03/08 07:54:33;;;;;;;0.50;0.50;;;;;;;7.35;60.65;99771.19;5017243;28;20037;-70
2023/03/08 07:56:58;;;;;;;0.73;0.47;;;;;;;7.37;60.28;99763.75;5034639;28;20033;-71
2023/03/08 07:59:24;;;;;;;1.45;0.70;;;;;;;6.74;61.84;99758.94;5034856;28;20068;-71
2023/03/08 08:01:49;;;;;;;0.65;0.65;;;;;;;7.48;59.95;99757.59;5034049;28;20102;-71
2023/03/08 08:04:15;;;;;;;0.60;0.60;;;;;;;7.66;59.38;99755.66;5034304;28;20037;-71
2023/03/08 08:06:40;;;;;;;1.17;0.90;;;;;;;7.13;60.46;99751.41;5034430;28;20061;-71
2023/03/08 08:09:08;;;;;;;0.30;0.30;;;;;;;7.66;59.78;99752.16;5034360;28;20037;-71
2023/03/08 08:11:33;;;;;;;0.40;0.40;;;;;;;8.14;58.23;99754.56;5034601;28;20088;-72
2023/03/08 08:14:00;;;;;;;0.30;0.30;;;;;;;7.72;59.48;99751.22;5034268;28;20029;-70
2023/03/08 08:16:25;;;;;;;0.38;0.38;;;;;;;7.41;59.50;99752.34;5022413;28;20049;-70
2023/03/08 08:18:52;;;;;;;0.50;0.50;;;;;;;6.76;61.49;99748.84;4996828;28;20034;-71
2023/03/08 08:21:17;;;;;;;0.50;0.50;;;;;;;7.23;61.09;99759.66;5014173;28;20034;-71
2023/03/08 08:23:43;;;;;;;0.60;0.60;;;;;;;7.23;61.26;99746.31;5014658;28;20064;-71
2023/03/08 08:26:15;;;;;;;0.73;0.50;;;;;;;6.83;62.26;99748.75;5016829;28;20087;-72
2023/03/08 08:28:42;;;;;;;0.73;0.70;;;;;;;6.70;63.37;99739.06;5033649;28;20049;-71
2023/03/08 08:31:12;;;;;;;0.40;0.40;;;;;;;7.00;62.96;99736.38;5033561;28;20065;-71
2023/03/08 08:33:37;;;;;;;0.50;0.50;;;;;;;6.85;63.05;99733.31;5033902;28;20516;-70
2023/03/08 08:36:05;;;;;;;0.47;0.47;;;;;;;7.00;62.63;99729.19;5033205;28;20029;-70
2023/03/08 08:38:30;;;;;;;0.43;0.43;;;;;;;7.56;61.57;99717.97;5034291;28;20065;-70
2023/03/08 08:41:00;;;;;;;0.55;0.55;;;;;;;7.52;61.09;99718.66;5033500;28;20077;-71
2023/03/08 08:43:27;;;;;;;0.30;0.30;;;;;;;8.08;59.55;99716.16;5013921;28;20091;-72
2023/03/08 08:45:55;;;;;;;0.40;0.40;;;;;;;8.19;59.17;99706.47;5013963;28;20484;-74
2023/03/08 08:48:22;;;;;;;0.30;0.30;;;;;;;8.02;59.21;99709.88;4996084;28;20061;-70
2023/03/08 08:50:47;;;;;;;0.50;0.50;;;;;;;8.08;58.56;99721.50;5013941;28;20038;-70
2023/03/08 08:53:13;;;;;;;0.40;0.40;;;;;;;8.02;59.33;99713.63;5024781;28;20053;-71
2023/03/08 08:55:38;;;;;;;0.50;0.50;;;;;;;7.79;60.02;99703.75;5033524;28;20091;-71
2023/03/08 08:58:04;;;;;;;0.50;0.50;;;;;;;7.85;59.83;99703.66;5032331;28;20056;-70
2023/03/08 09:00:32;;;;;;;0.30;0.30;;;;;;;7.67;59.71;99713.66;5015695;28;20057;-72
2023/03/08 09:02:57;;;;;;;0.30;0.30;;;;;;;7.97;59.43;99715.16;5014939;28;20049;-70
2023/03/08 09:05:23;;;;;;;0.40;0.40;;;;;;;7.65;60.75;99708.56;5033919;28;20651;-71
2023/03/08 09:07:48;;;;;;;0.30;0.30;;;;;;;7.56;59.99;99715.31;5033274;28;20037;-71
2023/03/08 09:10:14;;;;;;;0.40;0.40;;;;;;;7.77;60.38;99713.88;5033069;28;20076;-71
2023/03/08 09:12:40;;;;;;;0.35;0.35;;;;;;;8.41;58.49;99710.16;5033123;28;20642;-70
2023/03/08 09:15:06;;;;;;;0.30;0.30;;;;;;;7.90;59.78;99713.66;5032344;28;20069;-71
2023/03/08 09:17:32;;;;;;;0.50;0.50;;;;;;;7.89;60.47;99709.34;5013656;28;20029;-70
2023/03/08 09:19:58;;;;;;;0.38;0.38;;;;;;;8.54;58.59;99696.47;5013106;28;20049;-69
2023/03/08 09:22:23;;;;;;;0.40;0.40;;;;;;;8.47;58.39;99704.66;5013105;28;20168;-70
2023/03/08 09:24:49;;;;;;;0.40;0.40;;;;;;;8.05;59.96;99700.59;5013206;28;20042;-71
2023/03/08 09:27:15;;;;;;;0.38;0.38;;;;;;;7.59;61.68;99703.31;5024826;28;20109;-70
2023/03/08 09:29:40;;;;;;;0.30;0.30;;;;;;;8.19;59.79;99698.44;5033015;28;20033;-69
2023/03/08 09:32:06;;;;;;;0.38;0.38;;;;;;;8.14;59.62;99687.66;5032537;28;20049;-71
2023/03/08 09:34:31;;;;;;;0.40;0.40;;;;;;;8.17;60.78;99692.53;5032690;28;20029;-71
2023/03/08 09:36:57;;;;;;;0.38;0.38;;;;;;;8.47;59.62;99685.13;5032647;28;20529;-70
2023/03/08 09:39:22;;;;;;;0.47;0.47;;;;;;;8.76;58.80;99676.81;5032459;28;20044;-71
2023/03/08 09:41:50;;;;;;;0.30;0.30;;;;;;;8.29;60.09;99679.94;5032524;28;20033;-74
2023/03/08 09:44:46;;;;;;;0.40;0.40;;;;;;;9.51;58.19;99676.41;5032998;28;20075;-71
2023/03/08 09:47:42;;;;;;;0.45;0.45;;;;;;;9.42;57.17;99673.31;5031552;28;20048;-71
2023/03/08 09:50:11;;;;;;;0.40;0.40;;;;;;;8.66;59.45;99671.28;5032630;28;20061;-70
2023/03/08 09:52:38;;;;;;;0.35;0.35;;;;;;;9.25;59.15;99677.06;5032766;28;20039;-70
2023/03/08 09:55:17;;;;;;;0.30;0.30;;;;;;;9.02;58.87;99666.53;5032491;28;20052;-72
2023/03/08 09:57:51;;;;;;;0.30;0.30;;;;;;;9.30;58.07;99666.41;5032371;28;20037;-70
2023/03/08 10:00:20;;;;;;;0.30;0.30;;;;;;;9.11;59.23;99659.69;5032792;28;20037;-70
2023/03/08 10:03:12;;;;;;;0.30;0.30;;;;;;;9.68;58.27;99644.97;5014091;28;20081;-70
2023/03/08 10:05:55;;;;;;;;;;;;;;;10.01;57.40;99644.84;5033385;28;20539;-71
2023/03/08 10:08:36;;;;;;;0.30;0.30;;;;;;;9.62;57.68;99641.44;5032424;28;19923;-70
2023/03/08 10:11:06;;;;;;;0.30;0.30;;;;;;;9.30;58.21;99640.44;5032096;28;20474;-69
2023/03/08 10:13:47;;;;;;;0.40;0.40;;;;;;;9.85;57.35;99632.31;5032098;28;20524;-71
2023/03/08 10:16:23;;;;;;;0.43;0.43;;;;;;;9.61;58.40;99639.78;5004108;28;20034;-71
2023/03/08 10:19:14;;;;;;;0.25;0.25;;;;;;;9.13;60.09;99634.28;5011987;28;20394;-69
2023/03/08 10:21:43;;;;;;;0.40;0.40;;;;;;;9.77;57.95;99632.75;5012090;28;20038;-70
2023/03/08 10:24:25;;;;;;;0.30;0.30;;;;;;;9.34;58.72;99640.75;5011991;28;20058;-70
2023/03/08 10:26:51;;;;;;;0.30;0.30;;;;;;;9.47;57.96;99635.03;5020439;28;20112;-71
2023/03/08 10:29:17;;;;;;;0.20;0.20;;;;;;;9.79;57.98;99638.69;5031965;28;20033;-71
2023/03/08 10:31:43;;;;;;;0.50;0.50;;;;;;;10.57;56.69;99627.50;5031395;28;20484;-71
2023/03/08 10:34:13;;;;;;;0.40;0.40;;;;;;;10.95;55.81;99624.59;5031375;28;20588;-71
2023/03/08 10:37:01;;;;;;;0.50;0.50;;;;;;;10.69;55.51;99616.59;5031565;28;20045;-70
2023/03/08 10:39:27;;;;;;;0.40;0.40;;;;;;;10.76;56.23;99618.00;5031475;28;20573;-71
2023/03/08 10:42:00;;;;;;;0.32;0.32;;;;;;;11.40;55.68;99606.09;5031575;28;20036;-71
2023/03/08 10:44:39;;;;;;;0.25;0.25;;;;;;;10.52;56.46;99611.31;5032158;28;20104;-70
2023/03/08 10:47:18;;;;;;;0.40;0.40;;;;;;;11.06;56.03;99610.19;5031616;28;20041;-70
2023/03/08 10:49:46;;;;;;;0.38;0.38;;;;;;;11.19;55.35;99608.91;5031451;28;20099;-71
2023/03/08 10:52:24;;;;;;;0.30;0.30;;;;;;;11.59;54.58;99602.97;5031543;28;20040;-71
2023/03/08 10:55:09;;;;;;;0.30;0.30;;;;;;;11.29;54.45;99595.53;5013718;28;20571;-71
2023/03/08 10:57:35;;;;;;;0.30;0.30;;;;;;;11.15;54.55;99599.75;5031458;28;20116;-72
2023/03/08 11:00:19;;;;;;;0.30;0.30;;;;;;;11.61;54.50;99598.13;5031126;28;20034;-71
2023/03/08 11:02:47;;;;;;;0.38;0.38;;;;;;;11.40;54.67;99587.25;5031052;28;20050;-70
2023/03/08 11:05:25;;;;;;;0.30;0.30;;;;;;;11.70;54.24;99581.25;5031763;28;20040;-72
2023/03/08 11:07:58;;;;;;;0.25;0.25;;;;;;;12.10;53.70;99573.31;5031334;28;20033;-72
2023/03/08 11:10:30;;;;;;;0.40;0.40;;;;;;;11.84;53.31;99566.22;5031292;28;20489;-72
2023/03/08 11:13:22;;;;;;;0.40;0.40;;;;;;;11.77;53.92;99573.75;5031205;28;20037;-72
2023/03/08 11:15:57;;;;;;;0.30;0.30;;;;;;;11.66;54.27;99568.56;5024258;28;20088;-69
2023/03/08 11:18:26;;;;;;;0.30;0.30;;;;;;;12.00;53.97;99565.22;5011386;28;20382;-69
2023/03/08 11:20:58;;;;;;;0.32;0.32;;;;;;;12.05;54.11;99559.81;5011578;28;20018;-68
2023/03/08 11:23:39;;;;;;;0.50;0.50;;;;;;;11.80;53.12;99543.59;5011987;28;20022;-69
2023/03/08 11:26:23;;;;;;;0.40;0.40;;;;;;;12.18;52.50;99540.47;5013786;28;20417;-68
2023/03/08 11:29:11;;;;;;;0.40;0.40;;;;;;;11.31;55.22;99536.91;5030738;28;20033;-68
2023/03/08 11:31:51;;;;;;;0.30;0.30;;;;;;;11.24;55.47;99544.41;5030516;28;20042;-68
2023/03/08 11:34:22;;;;;;;0.30;0.30;;;;;;;10.49;57.11;99545.53;5031001;28;20041;-67
2023/03/08 11:36:53;;;;;;;0.32;0.32;;;;;;;11.86;54.45;99553.31;5030499;28;20048;-67
2023/03/08 11:39:27;;;;;;;0.20;0.20;;;;;;;12.05;54.35;99564.38;5031015;28;20426;-68
2023/03/08 11:42:05;;;;;;;0.30;0.30;;;;;;;12.20;52.80;99556.38;5030805;28;20112;-68